Ashland, WV

5:10 AM EDT on April 21, 2015 (GMT -0400)
RAWS | | Change Station
CLOSE
Current Station
Personal Weather Station
Location: Welch, WV
Elevation: 2100 ft
Nearby Weather Stations

Elev 2100 ft 37.40 °N, 81.54 °W | Updated 53 minutes ago

Overcast
Overcast
47 °F
Feels Like 44 °F
N
7
Wind Variable Wind from West
Gusts 15.0 mph

Today
High -- | Low -- °F
--% Chance of Precip.
Yesterday
High -- | Low -- °F
Precip. -- in
6:43 AM 8:06 PM
Waxing Crescent, 9% visible
Pressure 29.76 in
Visibility 10.0 miles
Clouds Scattered Clouds 1900 ft
Scattered Clouds 3500 ft
Mostly Cloudy 4400 ft
Windchill 44 °F
Dew Point 41 °F
Humidity 78%
Rainfall in
Snow Depth Not available.
UV 0 out of 12
Pollen 8.40 out of 12
Air Quality Not available.
Flu Activity Sporadic
METAR KBLF 210852Z AUTO 29010KT 260V320 10SM SCT019 SCT035 BKN044 08/03 A2983 RMK AO2 RAB18E34 SLP078 P0001 60001 T00780033 53002 $

More Conditions Fewer Conditions

Pressure 29.76 in
Visibility 10.0 miles
Clouds Scattered Clouds 1900 ft
Scattered Clouds 3500 ft
Mostly Cloudy 4400 ft
Windchill 44 °F
Dew Point 41 °F
Humidity 78%
Rainfall in
Snow Depth Not available.
UV 0 out of 12
Pollen 8.40 out of 12
Air Quality Not available.
Flu Activity Sporadic
METAR KBLF 210852Z AUTO 29010KT 260V320 10SM SCT019 SCT035 BKN044 08/03 A2983 RMK AO2 RAB18E34 SLP078 P0001 60001 T00780033 53002 $

More Conditions Fewer Conditions

10-Day Weather Forecast

Almanac

Astronomy

Apr. 21, 2015 Rise Set
Actual Time
Civil Twilight
Nautical Twilight
Astronomical Twilight
Moon
Length of Visible Light
Length of Day
Tomorrow will be .
, % of the Moon is Illuminated

Today's Extremes

State Highs State Lows

Community

WunderPhotos

Upload Photos

1,815,329 photos uploaded!

WunderBlogs® & News

Nearby

Air Quality

  Air Quality AQ Index Pollutant
Not available.

Snow Depth

Station Depth Elevation

Earthquake Activity

City Distance Mag. Time & Date
Minimum magnitude displayed is 2.5.

Coastal Water Temperatures

Place Temperature

Stations

Nearby Weather Stations

Station Location Temp. Windchill Dew Point Humidity Wind Precip. Elev Updated Type